Time;durP1;ratioP1;P1;durP2;ratioP2;P2;SDS_P1;SDS_P2;PMS_P1;PMS_P2;Temp;Humidity;BMP_temperature;BMP_pressure;BME280_temperature;BME280_humidity;BME280_pressure;Samples;Min_cycle;Max_cycle;Signal;HPM_P1;HPM_P2
2022/12/11 00:02:01;;;;;;;41.53;20.80;;;;;;;0.33;100.00;100229.25;5079045;28;20044;-45
2022/12/11 00:04:28;;;;;;;41.95;20.75;;;;;;;0.35;100.00;100228.94;5035552;28;20053;-44
2022/12/11 00:06:54;;;;;;;49.95;21.77;;;;;;;0.36;100.00;100234.13;5044111;28;20048;-43
2022/12/11 00:09:21;;;;;;;36.67;19.40;;;;;;;0.36;100.00;100236.84;5045140;28;20057;-43
2022/12/11 00:11:48;;;;;;;39.28;20.73;;;;;;;0.39;100.00;100230.00;5044016;28;20107;-43
2022/12/11 00:14:17;;;;;;;41.13;21.23;;;;;;;0.39;100.00;100222.63;5045855;28;20051;-43
2022/12/11 00:16:47;;;;;;;38.42;18.90;;;;;;;0.40;100.00;100226.97;5034895;28;20041;-44
2022/12/11 00:19:14;;;;;;;39.92;19.08;;;;;;;0.42;100.00;100232.97;5043224;28;20040;-43
2022/12/11 00:21:41;;;;;;;37.55;19.67;;;;;;;0.43;100.00;100229.13;5037169;28;20136;-45
2022/12/11 00:24:08;;;;;;;37.03;19.05;;;;;;;0.43;100.00;100218.22;5047114;28;20140;-44
2022/12/11 00:26:35;;;;;;;37.65;20.33;;;;;;;0.45;100.00;100220.66;5047539;28;20049;-43
2022/12/11 00:29:03;;;;;;;38.30;20.95;;;;;;;0.46;100.00;100217.66;5047158;28;20317;-44
2022/12/11 00:31:29;;;;;;;36.90;18.20;;;;;;;0.47;100.00;100213.84;5035132;28;20041;-43
2022/12/11 00:34:02;;;;;;;39.13;18.85;;;;;;;0.51;100.00;100228.47;5047117;28;20140;-44
2022/12/11 00:36:29;;;;;;;39.25;19.23;;;;;;;0.51;100.00;100236.63;5046190;28;20041;-43
2022/12/11 00:38:55;;;;;;;33.80;18.90;;;;;;;0.49;100.00;100233.41;5044126;28;20428;-44
2022/12/11 00:41:22;;;;;;;34.30;19.50;;;;;;;0.46;100.00;100223.09;5046502;28;20040;-43
2022/12/11 00:43:50;;;;;;;28.58;15.27;;;;;;;0.46;100.00;100233.97;5047603;28;20055;-44
2022/12/11 00:46:17;;;;;;;34.05;17.50;;;;;;;0.48;100.00;100222.78;5046565;28;20041;-43
2022/12/11 00:48:45;;;;;;;40.22;17.15;;;;;;;0.48;100.00;100226.31;5046533;28;20053;-44
2022/12/11 00:51:11;;;;;;;37.90;18.77;;;;;;;0.49;100.00;100225.22;5046580;28;20053;-43
2022/12/11 00:53:38;;;;;;;33.33;15.88;;;;;;;0.51;100.00;100224.94;5042078;28;20073;-44
2022/12/11 00:56:13;;;;;;;30.98;16.75;;;;;;;0.50;100.00;100221.38;5039621;28;20087;-50
2022/12/11 00:58:40;;;;;;;38.85;18.25;;;;;;;0.50;100.00;100228.78;5031645;28;20045;-44
2022/12/11 01:01:09;;;;;;;34.65;17.65;;;;;;;0.49;100.00;100225.22;5036647;28;20069;-44
2022/12/11 01:03:37;;;;;;;34.20;16.98;;;;;;;0.50;100.00;100224.13;5045270;28;20448;-43
2022/12/11 01:06:05;;;;;;;30.20;16.58;;;;;;;0.49;100.00;100219.78;5045441;28;20565;-43
2022/12/11 01:08:31;;;;;;;31.25;17.17;;;;;;;0.52;100.00;100221.94;5044274;28;20040;-43
2022/12/11 01:11:07;;;;;;;29.58;16.20;;;;;;;0.52;100.00;100221.94;5038517;28;20053;-44
2022/12/11 01:13:34;;;;;;;36.13;17.67;;;;;;;0.53;100.00;100218.09;5046002;28;20720;-47
2022/12/11 01:16:05;;;;;;;30.77;17.45;;;;;;;0.53;100.00;100212.66;5039346;28;20411;-43
2022/12/11 01:18:32;;;;;;;36.60;19.05;;;;;;;0.54;100.00;100208.00;5042442;28;20052;-44
2022/12/11 01:20:59;;;;;;;31.58;17.48;;;;;;;0.53;100.00;100215.38;5042040;28;20064;-45
2022/12/11 01:23:26;;;;;;;33.45;16.33;;;;;;;0.52;100.00;100210.22;5040283;28;20042;-43
2022/12/11 01:25:52;;;;;;;34.35;18.00;;;;;;;0.49;100.00;100206.16;5044037;28;20060;-44
2022/12/11 01:28:19;;;;;;;31.15;16.02;;;;;;;0.49;100.00;100203.44;5045856;28;20410;-44
2022/12/11 01:30:45;;;;;;;30.98;15.27;;;;;;;0.50;100.00;100207.78;5046547;28;20041;-43
2022/12/11 01:33:12;;;;;;;29.75;15.85;;;;;;;0.52;100.00;100213.75;5046523;28;20534;-48
2022/12/11 01:35:39;;;;;;;31.92;13.20;;;;;;;0.52;100.00;100211.03;5046355;28;20077;-44
2022/12/11 01:38:06;;;;;;;22.73;12.40;;;;;;;0.53;100.00;100212.66;5041089;28;20067;-45
2022/12/11 01:40:33;;;;;;;26.55;13.15;;;;;;;0.54;100.00;100208.00;5044499;28;20064;-44
2022/12/11 01:42:59;;;;;;;26.40;12.50;;;;;;;0.52;100.00;100205.59;5047368;28;20388;-44
2022/12/11 01:45:43;;;;;;;24.63;12.82;;;;;;;0.52;100.00;100197.44;5043915;28;20407;-43
2022/12/11 01:48:15;;;;;;;25.25;12.73;;;;;;;0.52;100.00;100199.34;5033293;28;20053;-44
2022/12/11 01:50:54;;;;;;;;;;;;;;;0.50;100.00;100205.06;5045308;28;20049;-44
2022/12/11 01:53:27;;;;;;;22.42;12.07;;;;;;;0.47;100.00;100202.13;5044214;28;20332;-43
2022/12/11 01:55:56;;;;;;;23.98;12.65;;;;;;;0.44;100.00;100203.50;5045656;28;20048;-43
2022/12/11 01:58:28;;;;;;;26.85;11.95;;;;;;;0.40;100.00;100199.75;5045483;28;20372;-44
2022/12/11 02:00:55;;;;;;;28.02;13.43;;;;;;;0.38;100.00;100188.34;5044581;28;20491;-43
2022/12/11 02:03:22;;;;;;;26.42;13.75;;;;;;;0.37;100.00;100192.16;5046646;28;20514;-43
2022/12/11 02:05:49;;;;;;;27.35;14.57;;;;;;;0.35;100.00;100188.91;5037647;28;20080;-43
2022/12/11 02:08:16;;;;;;;25.73;14.90;;;;;;;0.35;100.00;100193.53;5044670;28;20056;-44
2022/12/11 02:11:01;;;;;;;27.17;14.55;;;;;;;0.34;100.00;100200.09;5043894;28;20380;-44
2022/12/11 02:13:42;;;;;;;26.13;13.80;;;;;;;0.35;100.00;100199.00;5049277;28;20041;-43
2022/12/11 02:16:35;;;;;;;24.85;14.20;;;;;;;0.38;100.00;100209.31;5049902;28;20049;-44
2022/12/11 02:19:33;;;;;;;31.52;13.95;;;;;;;0.41;100.00;100212.25;5047913;28;20107;-44
2022/12/11 02:22:05;;;;;;;23.10;13.57;;;;;;;0.44;100.00;100219.03;5039856;28;20049;-43
2022/12/11 02:24:44;;;;;;;20.90;12.35;;;;;;;0.43;100.00;100220.13;5049345;28;20056;-44
2022/12/11 02:27:31;;;;;;;28.15;14.55;;;;;;;0.42;100.00;100215.81;5049040;28;20453;-45
2022/12/11 02:30:03;;;;;;;24.13;12.80;;;;;;;0.40;100.00;100224.25;5049603;28;20161;-51
2022/12/11 02:32:57;;;;;;;20.55;12.23;;;;;;;0.40;100.00;100231.59;5048718;28;20048;-44
2022/12/11 02:35:33;;;;;;;24.23;12.30;;;;;;;0.40;100.00;100229.69;5046057;28;20057;-43
2022/12/11 02:38:09;;;;;;;28.90;13.25;;;;;;;0.41;100.00;100228.59;5048303;28;20549;-44
2022/12/11 02:40:40;;;;;;;25.13;12.40;;;;;;;0.44;100.00;100232.66;5048409;28;20049;-44
2022/12/11 02:43:10;;;;;;;21.88;13.02;;;;;;;0.44;100.00;100236.19;5048532;28;20406;-43
2022/12/11 02:45:39;;;;;;;19.92;11.48;;;;;;;0.44;100.00;100229.94;5048804;28;20056;-45
2022/12/11 02:48:09;;;;;;;22.95;12.35;;;;;;;0.46;100.00;100223.09;5048071;28;20084;-43
2022/12/11 02:50:42;;;;;;;24.10;12.80;;;;;;;0.46;100.00;100236.72;5048847;28;20056;-43
2022/12/11 02:53:13;;;;;;;27.73;13.18;;;;;;;0.48;100.00;100225.50;5042708;28;20114;-43
2022/12/11 02:55:42;;;;;;;22.45;11.75;;;;;;;0.49;100.00;100230.69;5047535;28;20473;-44
2022/12/11 02:58:20;;;;;;;22.63;12.70;;;;;;;0.50;100.00;100215.94;5048611;28;20045;-44
2022/12/11 03:00:47;;;;;;;22.65;13.52;;;;;;;0.53;100.00;100220.03;5118740;22;20129;-46
2022/12/11 03:03:14;;;;;;;27.83;12.90;;;;;;;0.52;100.00;100216.50;5030279;28;20053;-44
2022/12/11 03:05:42;;;;;;;23.17;12.68;;;;;;;0.53;100.00;100207.19;5034261;28;20045;-43
2022/12/11 03:08:09;;;;;;;23.70;12.82;;;;;;;0.53;100.00;100212.66;5028424;28;20084;-44
2022/12/11 03:10:35;;;;;;;20.95;11.45;;;;;;;0.54;100.00;100205.28;5028575;28;20048;-47
2022/12/11 03:13:03;;;;;;;20.52;12.55;;;;;;;0.53;100.00;100209.91;5028024;28;20053;-43
2022/12/11 03:15:47;;;;;;;20.80;11.18;;;;;;;0.56;100.00;100216.69;5028335;28;20064;-43
2022/12/11 03:18:20;;;;;;;18.38;10.95;;;;;;;0.55;100.00;100220.53;5028879;28;20514;-46
2022/12/11 03:21:04;;;;;;;17.83;11.48;;;;;;;0.53;100.00;100218.09;5029495;28;20268;-43
2022/12/11 03:23:47;;;;;;;21.95;11.45;;;;;;;0.55;100.00;100217.81;5029817;28;20060;-43
2022/12/11 03:26:17;;;;;;;22.50;12.23;;;;;;;0.55;100.00;100209.66;5028231;28;20060;-44
2022/12/11 03:28:50;;;;;;;21.98;11.05;;;;;;;0.57;100.00;100213.69;5026073;28;20124;-46
2022/12/11 03:31:34;;;;;;;21.80;10.63;;;;;;;0.59;100.00;100221.56;5030325;28;20037;-46
2022/12/11 03:34:07;;;;;;;22.02;11.60;;;;;;;0.60;100.00;100218.56;5029142;28;20052;-46
2022/12/11 03:36:36;;;;;;;21.38;11.73;;;;;;;0.61;100.00;100214.72;5028499;28;20045;-44
2022/12/11 03:39:12;;;;;;;21.08;11.40;;;;;;;0.59;100.00;100211.47;5041024;28;20549;-46
2022/12/11 03:41:40;;;;;;;21.38;11.57;;;;;;;0.57;100.00;100212.88;5028843;28;20652;-45
2022/12/11 03:44:08;;;;;;;21.75;12.55;;;;;;;0.56;100.00;100214.78;5030548;28;20057;-44
2022/12/11 03:46:38;;;;;;;20.58;12.18;;;;;;;0.55;100.00;100207.75;5029874;28;20040;-47
2022/12/11 03:49:18;;;;;;;19.48;10.95;;;;;;;0.54;100.00;100218.91;5028568;28;20045;-45
2022/12/11 03:51:47;;;;;;;19.95;11.65;;;;;;;0.53;100.00;100212.66;5023639;28;20152;-47
2022/12/11 03:54:15;;;;;;;22.38;12.05;;;;;;;0.54;100.00;100214.28;5027079;28;20072;-44
2022/12/11 03:56:44;;;;;;;20.38;13.40;;;;;;;0.53;100.00;100212.66;5024369;28;20444;-45
2022/12/11 03:59:11;;;;;;;22.00;11.13;;;;;;;0.53;100.00;100214.59;5029705;28;20041;-45
2022/12/11 04:01:38;;;;;;;25.83;12.45;;;;;;;0.54;100.00;100213.47;5030602;28;20073;-43
2022/12/11 04:04:05;;;;;;;21.55;10.65;;;;;;;0.54;100.00;100214.28;5029221;28;20584;-44
2022/12/11 04:06:32;;;;;;;20.15;12.55;;;;;;;0.53;100.00;100203.69;5029122;28;20041;-44
2022/12/11 04:08:58;;;;;;;22.85;11.23;;;;;;;0.50;100.00;100210.50;5029562;28;20045;-47
2022/12/11 04:11:34;;;;;;;21.52;11.70;;;;;;;0.48;100.00;100203.72;5028090;28;20103;-44
2022/12/11 04:16:59;;;;;;;23.20;11.45;;;;;;;0.45;100.00;100201.59;5029127;28;20504;-44
2022/12/11 04:25:00;;;;;;;22.60;12.82;;;;;;;0.45;100.00;100220.66;5027862;28;20045;-45
2022/12/11 04:30:16;;;;;;;18.95;11.25;;;;;;;0.47;100.00;100213.00;5025976;28;20141;-44
2022/12/11 04:32:43;;;;;;;22.40;12.50;;;;;;;0.46;100.00;100222.28;5006938;28;20136;-46
2022/12/11 04:35:11;;;;;;;19.88;12.27;;;;;;;0.43;100.00;100201.88;5027499;28;20482;-48
2022/12/11 04:37:39;;;;;;;24.05;12.30;;;;;;;0.42;100.00;100203.00;5028294;28;20045;-44
2022/12/11 04:40:10;;;;;;;22.63;12.75;;;;;;;0.42;100.00;100189.38;5022706;28;20085;-45
2022/12/11 04:42:36;;;;;;;24.73;12.57;;;;;;;0.41;100.00;100186.94;5027706;28;20060;-45
2022/12/11 04:45:05;;;;;;;23.17;11.88;;;;;;;0.39;100.00;100194.59;5026932;28;20538;-45
2022/12/11 04:47:34;;;;;;;34.92;13.25;;;;;;;0.34;100.00;100186.50;5028574;28;20128;-46
2022/12/11 04:50:02;;;;;;;18.23;11.48;;;;;;;0.26;100.00;100187.13;5026199;28;20045;-44
2022/12/11 04:52:29;;;;;;;20.90;12.35;;;;;;;0.19;100.00;100178.50;5026265;28;20364;-52
2022/12/11 04:54:56;;;;;;;24.02;12.25;;;;;;;0.14;100.00;100173.13;5027501;28;20045;-47
2022/12/11 04:57:22;;;;;;;20.50;11.55;;;;;;;0.10;100.00;100174.81;5027862;28;20060;-45
2022/12/11 04:59:49;;;;;;;20.35;11.30;;;;;;;0.08;100.00;100182.47;5026719;28;20037;-44
2022/12/11 05:02:16;;;;;;;22.58;11.38;;;;;;;0.04;100.00;100181.41;5026260;28;20041;-44
2022/12/11 05:04:43;;;;;;;22.67;11.32;;;;;;;0.02;100.00;100184.44;5027107;28;20076;-45
2022/12/11 05:07:09;;;;;;;17.63;10.00;;;;;;;0.02;100.00;100189.88;5019493;28;20099;-48
2022/12/11 05:09:36;;;;;;;19.75;11.48;;;;;;;0.04;100.00;100181.41;5028881;28;20045;-51
2022/12/11 05:12:03;;;;;;;23.42;12.00;;;;;;;0.05;100.00;100189.28;5028631;28;20049;-44
2022/12/11 05:14:31;;;;;;;17.20;10.20;;;;;;;0.09;100.00;100190.31;5027392;28;20064;-45
2022/12/11 05:16:58;;;;;;;18.75;10.65;;;;;;;0.11;100.00;100190.84;5028200;28;20049;-45
2022/12/11 05:19:26;;;;;;;17.83;10.38;;;;;;;0.13;100.00;100196.81;5028016;28;20503;-45
2022/12/11 05:21:53;;;;;;;15.73;9.98;;;;;;;0.16;100.00;100201.66;5029538;28;20107;-49
2022/12/11 05:24:19;;;;;;;17.98;9.73;;;;;;;0.18;100.00;100198.66;5027337;28;20045;-46
2022/12/11 05:26:46;;;;;;;16.75;9.82;;;;;;;0.18;100.00;100204.94;5026730;28;20049;-43
2022/12/11 05:29:13;;;;;;;15.68;9.30;;;;;;;0.18;100.00;100204.94;5026777;28;20080;-43
2022/12/11 05:31:39;;;;;;;22.65;11.82;;;;;;;0.18;100.00;100196.75;5026792;28;20045;-44
2022/12/11 05:34:06;;;;;;;17.02;9.07;;;;;;;0.15;100.00;100210.94;5026644;28;20072;-43
2022/12/11 05:36:33;;;;;;;16.70;8.68;;;;;;;0.12;100.00;100207.97;5024798;28;20042;-44
2022/12/11 05:39:02;;;;;;;17.88;9.25;;;;;;;0.09;100.00;100200.38;5032194;28;20033;-43
2022/12/11 05:41:31;;;;;;;13.77;8.63;;;;;;;0.04;100.00;100197.72;5020566;28;20049;-43
2022/12/11 05:43:58;;;;;;;14.82;8.63;;;;;;;0.03;100.00;100196.91;5024831;28;20442;-43
2022/12/11 05:46:28;;;;;;;15.80;8.20;;;;;;;0.02;100.00;100206.19;5016771;28;20050;-44
2022/12/11 05:48:57;;;;;;;15.48;9.00;;;;;;;0.02;100.00;100203.47;5024568;28;20490;-43
2022/12/11 05:51:25;;;;;;;11.23;6.18;;;;;;;0.00;100.00;100209.19;5023077;28;20057;-52
2022/12/11 05:53:53;;;;;;;13.77;7.30;;;;;;;0.02;100.00;100211.63;5017871;28;20049;-43
2022/12/11 05:56:22;;;;;;;16.05;7.80;;;;;;;0.04;100.00;100220.31;5024379;28;20056;-46
2022/12/11 05:58:49;;;;;;;15.38;7.68;;;;;;;0.08;100.00;100209.66;5024426;28;20420;-43
2022/12/11 06:01:39;;;;;;;17.33;7.53;;;;;;;0.08;100.00;100210.47;5026028;28;20060;-44
2022/12/11 06:04:08;;;;;;;11.88;6.88;;;;;;;0.09;100.00;100205.84;5025707;28;20073;-43
2022/12/11 06:06:35;;;;;;;12.48;6.00;;;;;;;0.09;100.00;100209.38;5027750;28;20442;-43
2022/12/11 06:09:03;;;;;;;9.82;6.00;;;;;;;0.08;100.00;100210.47;5028665;28;20058;-44
2022/12/11 06:11:31;;;;;;;9.95;6.53;;;;;;;0.09;100.00;100214.00;5030533;28;20055;-43
2022/12/11 06:14:00;;;;;;;11.63;7.43;;;;;;;0.06;100.00;100214.56;5015554;28;20131;-43
2022/12/11 06:16:27;;;;;;;10.68;6.40;;;;;;;0.05;100.00;100210.25;5028161;28;20075;-43
2022/12/11 06:18:54;;;;;;;13.77;6.43;;;;;;;0.04;100.00;100223.03;5028996;28;20037;-43
2022/12/11 06:21:32;;;;;;;11.50;6.13;;;;;;;0.03;100.00;100223.34;5025244;28;20055;-49
2022/12/11 06:24:02;;;;;;;15.25;6.50;;;;;;;0.04;100.00;100228.47;5027637;28;20549;-43
2022/12/11 06:26:29;;;;;;;11.80;6.53;;;;;;;0.06;100.00;100220.00;5028979;28;20057;-43
2022/12/11 06:28:55;;;;;;;13.05;6.40;;;;;;;0.07;100.00;100225.19;5035119;28;20136;-43
2022/12/11 06:31:22;;;;;;;10.90;6.28;;;;;;;0.10;100.00;100223.78;5023332;28;20040;-43
2022/12/11 06:33:49;;;;;;;10.45;5.95;;;;;;;0.13;100.00;100228.66;5020206;28;20045;-44
2022/12/11 06:36:19;;;;;;;9.05;5.50;;;;;;;0.16;100.00;100228.88;5026212;28;20041;-43
2022/12/11 06:38:47;;;;;;;11.65;6.63;;;;;;;0.19;100.00;100230.22;5041341;28;20045;-43
2022/12/11 06:41:14;;;;;;;10.05;5.82;;;;;;;0.22;100.00;100227.72;5019393;28;20046;-46
2022/12/11 06:43:44;;;;;;;9.82;5.00;;;;;;;0.24;100.00;100230.19;5027143;28;20034;-44
2022/12/11 06:46:14;;;;;;;10.40;5.97;;;;;;;0.22;100.00;100222.28;5021481;28;20459;-44
2022/12/11 06:48:42;;;;;;;10.98;6.47;;;;;;;0.22;100.00;100221.47;5019126;28;20141;-48
2022/12/11 06:51:11;;;;;;;14.60;6.20;;;;;;;0.22;100.00;100214.13;5028063;28;20376;-43
2022/12/11 06:53:38;;;;;;;12.13;6.63;;;;;;;0.22;100.00;100222.28;5027655;28;20042;-43
2022/12/11 06:56:08;;;;;;;10.88;5.78;;;;;;;0.22;100.00;100216.84;5020781;28;20050;-45
2022/12/11 06:58:36;;;;;;;12.00;6.63;;;;;;;0.23;100.00;100212.22;5026969;28;20059;-42
2022/12/11 07:01:04;;;;;;;12.05;5.95;;;;;;;0.22;100.00;100216.84;5026628;28;20042;-43
2022/12/11 07:03:31;;;;;;;13.00;6.28;;;;;;;0.21;100.00;100215.25;5022242;28;20376;-44
2022/12/11 07:06:01;;;;;;;14.93;7.18;;;;;;;0.16;100.00;100218.00;5028446;28;20041;-43
2022/12/11 07:08:28;;;;;;;14.52;6.55;;;;;;;0.16;100.00;100218.00;5028403;28;20049;-43
2022/12/11 07:11:05;;;;;;;11.45;6.55;;;;;;;0.15;100.00;100221.00;5027224;28;20037;-43
2022/12/11 07:13:32;;;;;;;11.35;6.75;;;;;;;0.13;100.00;100207.72;5026673;28;20057;-43
2022/12/11 07:16:00;;;;;;;10.30;5.68;;;;;;;0.11;100.00;100209.88;5027775;28;20065;-46
2022/12/11 07:18:27;;;;;;;9.63;6.63;;;;;;;0.10;100.00;100211.00;5027087;28;20450;-48
2022/12/11 07:20:58;;;;;;;11.73;6.30;;;;;;;0.10;100.00;100207.47;5039571;28;20415;-43
2022/12/11 07:23:27;;;;;;;10.60;6.13;;;;;;;0.07;100.00;100210.75;5028319;28;20037;-43
2022/12/11 07:25:54;;;;;;;11.85;6.80;;;;;;;0.06;100.00;100209.94;5028629;28;20049;-43
2022/12/11 07:28:21;;;;;;;13.07;5.88;;;;;;;0.05;100.00;100216.50;5027836;28;20038;-44
2022/12/11 07:30:48;;;;;;;8.90;5.70;;;;;;;0.04;100.00;100217.59;5028303;28;20071;-43
2022/12/11 07:33:14;;;;;;;11.35;4.97;;;;;;;0.02;100.00;100213.53;5028233;28;20137;-45
2022/12/11 07:35:41;;;;;;;11.95;4.60;;;;;;;-0.03;100.00;100215.19;5026262;28;20037;-46
2022/12/11 07:38:08;;;;;;;11.50;6.15;;;;;;;-0.06;100.00;100214.97;5026617;28;20403;-44
2022/12/11 07:40:34;;;;;;;10.20;5.47;;;;;;;-0.09;100.00;100213.66;5025664;28;20235;-51
2022/12/11 07:43:02;;;;;;;8.18;4.50;;;;;;;-0.12;100.00;100205.25;5024297;28;20037;-43
2022/12/11 07:45:29;;;;;;;7.65;4.45;;;;;;;-0.11;100.00;100206.88;5022962;28;20136;-50
2022/12/11 07:47:55;;;;;;;8.57;4.13;;;;;;;-0.12;100.00;100208.78;5020772;28;20463;-43
2022/12/11 07:50:22;;;;;;;7.68;4.53;;;;;;;-0.12;100.00;100216.13;5019263;28;20513;-44
2022/12/11 07:52:49;;;;;;;9.20;4.53;;;;;;;-0.14;100.00;100218.34;5027536;28;20057;-51
2022/12/11 07:55:16;;;;;;;7.85;4.97;;;;;;;-0.16;100.00;100226.75;5026396;28;20352;-43
2022/12/11 07:57:42;;;;;;;10.43;4.63;;;;;;;-0.17;100.00;100227.06;5025240;28;20075;-43
2022/12/11 08:00:10;;;;;;;9.10;4.97;;;;;;;-0.19;100.00;100237.44;5023168;28;20056;-44
2022/12/11 08:02:37;;;;;;;8.73;4.35;;;;;;;-0.19;100.00;100234.72;5027522;28;20152;-43
2022/12/11 08:05:04;;;;;;;7.68;4.05;;;;;;;-0.21;100.00;100236.88;5024853;28;20131;-44
2022/12/11 08:07:34;;;;;;;9.60;3.78;;;;;;;-0.23;100.00;100239.09;5021613;28;20049;-44
2022/12/11 08:10:01;;;;;;;6.65;4.47;;;;;;;-0.21;100.00;100240.41;5026695;28;20047;-43
2022/12/11 08:12:28;;;;;;;10.02;4.43;;;;;;;-0.18;100.00;100237.13;5025262;28;20728;-43
2022/12/11 08:14:54;;;;;;;9.27;4.82;;;;;;;-0.15;100.00;100238.47;5026932;28;20403;-43
2022/12/11 08:17:21;;;;;;;7.72;3.97;;;;;;;-0.14;100.00;100237.38;5014418;28;20037;-44
2022/12/11 08:19:57;;;;;;;5.40;3.42;;;;;;;-0.15;100.00;100235.75;5023056;28;20160;-49
2022/12/11 08:22:24;;;;;;;6.75;4.00;;;;;;;-0.12;100.00;100237.91;5023841;28;20049;-44
2022/12/11 08:24:51;;;;;;;10.85;4.57;;;;;;;-0.11;100.00;100236.81;5026683;28;20045;-48
2022/12/11 08:27:17;;;;;;;7.40;4.40;;;;;;;-0.12;100.00;100232.44;5019125;28;20330;-44
2022/12/11 08:29:46;;;;;;;5.65;3.28;;;;;;;-0.14;100.00;100246.34;5024135;28;20053;-42
2022/12/11 08:32:15;;;;;;;5.43;2.88;;;;;;;-0.13;100.00;100247.13;5023953;28;20120;-43
2022/12/11 08:34:42;;;;;;;6.05;3.97;;;;;;;-0.15;100.00;100260.22;5026830;28;21013;-45
2022/12/11 08:37:09;;;;;;;6.75;3.65;;;;;;;-0.15;100.00;100257.50;5024947;28;20042;-44
2022/12/11 08:39:35;;;;;;;5.72;3.85;;;;;;;-0.16;100.00;100266.78;5026517;28;20072;-44
2022/12/11 08:42:02;;;;;;;6.85;4.25;;;;;;;-0.19;100.00;100262.72;5024304;28;20041;-46
2022/12/11 08:44:29;;;;;;;8.10;4.32;;;;;;;-0.20;100.00;100268.44;5031348;28;20041;-43
2022/12/11 08:46:56;;;;;;;5.00;3.38;;;;;;;-0.22;100.00;100260.56;5019873;28;20049;-49
2022/12/11 08:49:22;;;;;;;8.18;4.53;;;;;;;-0.23;100.00;100274.44;5026888;28;20100;-44
2022/12/11 08:51:49;;;;;;;6.68;4.63;;;;;;;-0.24;100.00;100262.75;5021799;28;20046;-44
2022/12/11 08:54:16;;;;;;;9.13;4.07;;;;;;;-0.24;100.00;100262.75;5028536;28;20124;-45
2022/12/11 08:56:42;;;;;;;7.13;3.67;;;;;;;-0.23;100.00;100266.28;5026998;28;20056;-44
2022/12/11 08:59:09;;;;;;;6.63;3.92;;;;;;;-0.22;100.00;100263.28;5037073;28;20038;-46
2022/12/11 09:01:36;;;;;;;6.32;4.05;;;;;;;-0.21;100.00;100270.34;5032169;28;20061;-44
2022/12/11 09:04:03;;;;;;;6.88;4.07;;;;;;;-0.18;100.00;100266.22;5027143;28;20068;-44
2022/12/11 09:06:32;;;;;;;4.95;3.70;;;;;;;-0.17;100.00;100270.59;5025271;28;20496;-44
2022/12/11 09:09:00;;;;;;;6.03;3.88;;;;;;;-0.16;100.00;100274.94;5025415;28;20044;-43
2022/12/11 09:11:30;;;;;;;6.72;4.28;;;;;;;-0.12;100.00;100278.69;5027067;28;20422;-44
2022/12/11 09:13:58;;;;;;;7.13;3.40;;;;;;;-0.05;100.00;100279.16;5027229;28;20384;-44
2022/12/11 09:16:36;;;;;;;8.40;3.45;;;;;;;0.03;100.00;100284.00;5026920;28;20049;-44
2022/12/11 09:19:06;;;;;;;11.45;5.03;;;;;;;0.08;100.00;100278.50;5032168;28;20526;-44
2022/12/11 09:21:32;;;;;;;6.47;4.30;;;;;;;0.11;100.00;100269.75;5029177;28;20038;-48
2022/12/11 09:24:00;;;;;;;7.15;4.10;;;;;;;0.12;100.00;100276.84;5025574;28;20052;-46
2022/12/11 09:26:28;;;;;;;9.88;4.18;;;;;;;0.11;100.00;100280.66;5028496;28;20041;-44
2022/12/11 09:28:56;;;;;;;10.20;4.65;;;;;;;0.08;100.00;100275.78;5030214;28;20037;-44
2022/12/11 09:31:28;;;;;;;11.70;6.25;;;;;;;0.06;100.00;100272.53;5027028;28;20505;-44
2022/12/11 09:33:58;;;;;;;12.48;5.75;;;;;;;0.08;100.00;100281.22;5027294;28;20115;-44
2022/12/11 09:36:25;;;;;;;10.98;5.68;;;;;;;0.10;100.00;100286.38;5028350;28;20096;-46
2022/12/11 09:38:52;;;;;;;8.15;4.88;;;;;;;0.10;100.00;100287.22;5021672;28;20069;-43
2022/12/11 09:41:22;;;;;;;7.82;4.72;;;;;;;0.11;100.00;100283.38;5026921;28;20041;-44
2022/12/11 09:44:02;;;;;;;9.88;6.05;;;;;;;0.13;100.00;100283.91;5029853;28;20053;-44
2022/12/11 09:46:32;;;;;;;9.82;5.75;;;;;;;0.18;100.00;100285.78;5023171;28;20601;-45
2022/12/11 09:49:02;;;;;;;7.25;5.40;;;;;;;0.23;100.00;100286.53;5030580;28;20053;-50
2022/12/11 09:51:43;;;;;;;11.13;5.97;;;;;;;0.25;100.00;100289.75;5028905;28;20049;-45
2022/12/11 09:54:12;;;;;;;10.45;5.38;;;;;;;0.28;100.00;100281.03;5029448;28;20487;-44
2022/12/11 09:56:51;;;;;;;10.73;5.85;;;;;;;0.29;100.00;100281.84;5032341;28;20080;-44
2022/12/11 09:59:39;;;;;;;9.48;5.53;;;;;;;0.31;100.00;100285.09;5037391;28;20052;-45
2022/12/11 10:02:46;;;;;;;8.63;5.63;;;;;;;0.32;100.00;100276.63;5034200;28;20053;-47
2022/12/11 10:05:25;;;;;;;9.30;5.25;;;;;;;0.39;100.00;100271.66;5031397;28;20099;-43
2022/12/11 10:08:11;;;;;;;9.13;4.88;;;;;;;0.45;100.00;100270.47;5027911;28;20049;-44
2022/12/11 10:11:03;;;;;;;7.80;4.55;;;;;;;0.49;100.00;100268.81;5039306;28;20510;-46
2022/12/11 10:13:44;;;;;;;8.13;5.28;;;;;;;0.50;100.00;100278.59;5023112;28;20042;-44
2022/12/11 10:16:50;;;;;;;6.68;4.22;;;;;;;0.51;100.00;100273.94;5017857;28;20037;-47
2022/12/11 10:19:29;;;;;;;7.43;4.07;;;;;;;0.46;100.00;100277.56;5027416;28;20042;-45
2022/12/11 10:22:00;;;;;;;6.78;4.38;;;;;;;0.41;100.00;100279.53;5033089;28;20406;-45
2022/12/11 10:24:41;;;;;;;8.43;4.13;;;;;;;0.39;100.00;100287.19;5031805;28;20056;-45
2022/12/11 10:27:34;;;;;;;6.55;4.30;;;;;;;0.40;100.00;100288.78;5028961;28;20149;-46
2022/12/11 10:30:27;;;;;;;4.35;3.20;;;;;;;0.40;100.00;100281.44;5029785;28;20053;-44
2022/12/11 10:33:15;;;;;;;9.55;4.05;;;;;;;0.41;100.00;100285.78;5022627;28;20407;-45
2022/12/11 10:35:49;;;;;;;10.52;6.15;;;;;;;0.42;100.00;100271.09;5027125;28;20042;-48
2022/12/11 10:38:45;;;;;;;8.05;4.22;;;;;;;0.48;100.00;100264.44;5016726;28;20046;-44
2022/12/11 10:41:20;;;;;;;5.68;3.88;;;;;;;0.55;100.00;100277.72;5019315;28;20042;-45
2022/12/11 10:43:48;;;;;;;8.82;4.57;;;;;;;0.58;100.00;100280.66;5040208;28;20037;-45
2022/12/11 10:46:27;;;;;;;7.60;4.22;;;;;;;0.59;100.00;100270.59;5029465;28;20085;-44
2022/12/11 10:48:56;;;;;;;8.23;5.10;;;;;;;0.59;100.00;100271.41;5028967;28;20053;-49
2022/12/11 10:51:33;;;;;;;11.68;5.47;;;;;;;0.59;100.00;100271.41;5026687;28;20574;-48
2022/12/11 10:54:06;;;;;;;8.80;5.18;;;;;;;0.59;100.00;100271.41;5030031;28;20045;-52
2022/12/11 10:56:36;;;;;;;10.68;5.88;;;;;;;0.60;100.00;100267.59;5023716;28;20403;-45
2022/12/11 10:59:03;;;;;;;9.30;5.45;;;;;;;0.61;100.00;100269.19;5030569;28;20041;-45
2022/12/11 11:01:31;;;;;;;12.77;6.95;;;;;;;0.64;100.00;100272.47;5042041;28;20064;-44
2022/12/11 11:04:05;;;;;;;17.20;7.68;;;;;;;0.61;100.00;100274.63;5030007;28;20041;-49
2022/12/11 11:06:33;;;;;;;13.05;6.88;;;;;;;0.60;100.00;100270.31;5028905;28;20060;-44
2022/12/11 11:09:00;;;;;;;12.05;6.35;;;;;;;0.61;100.00;100269.19;5029409;28;20057;-45
2022/12/11 11:11:31;;;;;;;13.25;6.05;;;;;;;0.59;100.00;100276.03;5034020;28;20048;-45
2022/12/11 11:14:24;;;;;;;12.63;7.33;;;;;;;0.55;100.00;100275.81;5029803;28;20283;-52
2022/12/11 11:16:54;;;;;;;17.15;8.48;;;;;;;0.53;100.00;100261.66;5029585;28;20080;-46
2022/12/11 11:19:34;;;;;;;18.00;9.73;;;;;;;0.51;100.00;100261.16;5029297;28;20049;-45
2022/12/11 11:22:07;;;;;;;16.95;7.05;;;;;;;0.50;100.00;100259.53;5030185;28;20045;-54
2022/12/11 11:24:40;;;;;;;10.63;6.07;;;;;;;0.49;100.00;100260.63;5030424;28;20099;-46
2022/12/11 11:27:33;;;;;;;11.95;6.25;;;;;;;0.52;100.00;100253.78;5030094;28;20045;-45
2022/12/11 11:30:30;;;;;;;17.23;7.15;;;;;;;0.57;100.00;100260.00;5030130;28;20464;-46
2022/12/11 11:33:03;;;;;;;8.50;5.07;;;;;;;0.62;100.00;100261.84;5024528;28;20503;-44
2022/12/11 11:35:30;;;;;;;;;;;;;;;0.65;100.00;100263.16;5031096;28;20476;-44
2022/12/11 11:38:01;;;;;;;14.38;5.18;;;;;;;0.68;100.00;100262.59;5029971;28;19925;-45
2022/12/11 11:40:32;;;;;;;13.20;5.85;;;;;;;0.72;100.00;100269.06;5030021;28;20033;-44
2022/12/11 11:43:29;;;;;;;10.05;5.80;;;;;;;0.77;100.00;100267.09;5030921;28;20041;-45